Time;durP1;ratioP1;P1;durP2;ratioP2;P2;SDS_P1;SDS_P2;PMS_P1;PMS_P2;Temp;Humidity;BMP_temperature;BMP_pressure;BME280_temperature;BME280_humidity;BME280_pressure;Samples;Min_cycle;Max_cycle;Signal;HPM_P1;HPM_P2
2021/06/20 00:00:29;;;;;;;2.15;0.40;;;;;;;21.97;63.89;99727.59;1773755;78;20998;-56
2021/06/20 00:02:56;;;;;;;3.17;0.40;;;;;;;21.94;63.92;99729.23;1770831;78;21529;-56
2021/06/20 00:05:34;;;;;;;1.50;0.40;;;;;;;21.90;63.96;99728.66;1772125;78;21929;-55
2021/06/20 00:08:05;;;;;;;2.45;0.30;;;;;;;21.87;64.03;99728.06;1766263;78;20942;-55
2021/06/20 00:10:33;;;;;;;3.80;0.40;;;;;;;21.82;64.15;99731.77;1768938;78;20975;-56
2021/06/20 00:14:45;;;;;;;1.20;0.30;;;;;;;21.82;64.31;99730.39;1850869;75;28739;-53
2021/06/20 00:17:12;;;;;;;1.60;0.40;;;;;;;21.76;64.39;99729.62;1843931;75;21030;-53
2021/06/20 00:19:38;;;;;;;3.60;0.55;;;;;;;21.75;64.45;99729.25;1843108;75;21821;-54
2021/06/20 00:22:04;;;;;;;1.47;0.33;;;;;;;21.73;64.48;99736.24;1843209;75;21826;-54
2021/06/20 00:24:31;;;;;;;3.17;0.40;;;;;;;21.71;64.58;99734.14;1842435;75;21045;-53
2021/06/20 00:26:57;;;;;;;2.25;0.40;;;;;;;21.68;64.67;99739.94;1842551;75;21127;-54
2021/06/20 00:29:24;;;;;;;3.40;0.50;;;;;;;21.65;64.78;99736.10;1845613;75;21004;-54
2021/06/20 00:31:50;;;;;;;3.95;0.30;;;;;;;21.61;64.82;99734.64;1845319;75;21063;-54
2021/06/20 00:34:17;;;;;;;3.87;0.42;;;;;;;21.59;64.98;99735.32;1846564;75;21001;-55
2021/06/20 00:36:44;;;;;;;0.85;0.30;;;;;;;21.57;65.11;99740.07;1841626;75;21471;-54
2021/06/20 00:39:10;;;;;;;1.07;0.40;;;;;;;21.57;65.20;99744.17;1845820;75;21046;-55
2021/06/20 00:41:38;;;;;;;2.00;0.37;;;;;;;21.58;65.27;99752.77;1843104;75;21019;-54
2021/06/20 00:44:04;;;;;;;1.55;0.30;;;;;;;21.57;65.33;99747.42;1832560;77;21637;-54
2021/06/20 00:46:32;;;;;;;2.27;0.40;;;;;;;21.55;65.35;99742.08;1833663;76;21001;-54
2021/06/20 00:48:59;;;;;;;2.80;0.42;;;;;;;21.53;65.37;99743.59;1835326;76;21017;-55
2021/06/20 00:51:25;;;;;;;4.40;0.50;;;;;;;21.51;65.53;99742.02;1835826;76;21021;-56
2021/06/20 00:53:53;;;;;;;2.70;0.50;;;;;;;21.48;65.72;99745.03;1834121;76;21128;-55
2021/06/20 00:56:20;;;;;;;5.58;0.50;;;;;;;21.45;65.85;99754.90;1836755;76;21112;-54
2021/06/20 00:58:48;;;;;;;0.95;0.33;;;;;;;21.43;66.01;99755.56;1831553;76;21115;-54
2021/06/20 01:01:14;;;;;;;1.47;0.40;;;;;;;21.41;66.16;99755.70;1833332;76;21045;-55
2021/06/20 01:03:41;;;;;;;0.62;0.40;;;;;;;21.41;66.23;99750.73;1834349;76;21049;-54
2021/06/20 01:06:07;;;;;;;2.27;0.35;;;;;;;21.41;66.32;99752.09;1834255;76;21340;-54
2021/06/20 01:08:34;;;;;;;0.90;0.30;;;;;;;21.39;66.41;99746.77;1837014;76;21497;-55
2021/06/20 01:11:02;;;;;;;4.53;0.70;;;;;;;21.39;66.53;99755.48;1835590;76;21551;-55
2021/06/20 01:13:28;;;;;;;3.50;0.50;;;;;;;21.39;66.68;99752.23;1835409;76;21468;-55
2021/06/20 01:15:55;;;;;;;1.75;0.40;;;;;;;21.39;66.61;99750.86;1836408;76;21123;-56
2021/06/20 01:18:23;;;;;;;9.28;0.50;;;;;;;21.39;66.74;99756.84;1834533;76;21037;-56
2021/06/20 01:20:50;;;;;;;5.90;0.60;;;;;;;21.38;66.80;99761.45;1832113;76;21587;-55
2021/06/20 01:23:16;;;;;;;3.35;0.30;;;;;;;21.39;66.77;99762.32;1795559;78;21584;-56
2021/06/20 01:25:43;;;;;;;1.60;0.30;;;;;;;21.38;66.78;99764.69;1790385;78;21054;-55
2021/06/20 01:28:10;;;;;;;3.35;0.40;;;;;;;21.38;66.80;99766.93;1767402;80;21642;-56
2021/06/20 01:30:44;;;;;;;4.03;0.50;;;;;;;21.38;66.81;99759.22;1783930;79;21394;-55
2021/06/20 01:33:10;;;;;;;4.15;0.60;;;;;;;21.39;66.80;99763.69;1775893;79;21121;-56
2021/06/20 01:35:36;;;;;;;2.50;0.50;;;;;;;21.38;66.88;99764.19;1779194;79;21070;-56
2021/06/20 01:38:04;;;;;;;1.00;0.40;;;;;;;21.37;66.98;99764.33;1777681;79;21390;-56
2021/06/20 01:40:30;;;;;;;6.50;0.45;;;;;;;21.36;67.02;99765.33;1780258;79;21334;-55
2021/06/20 01:42:57;;;;;;;3.40;0.40;;;;;;;21.35;67.03;99771.84;1774583;79;21072;-56
2021/06/20 01:45:25;;;;;;;4.47;0.30;;;;;;;21.35;66.97;99768.57;1782187;79;21983;-55
2021/06/20 01:47:52;;;;;;;1.47;0.40;;;;;;;21.34;66.87;99767.38;1780931;79;21706;-56
2021/06/20 01:50:18;;;;;;;4.37;0.20;;;;;;;21.34;66.79;99769.61;1777894;79;21040;-55
2021/06/20 01:52:45;;;;;;;1.72;0.62;;;;;;;21.35;66.71;99763.09;1776775;79;21048;-55
2021/06/20 01:55:13;;;;;;;1.75;0.40;;;;;;;21.36;66.59;99767.56;1782067;79;20914;-55
2021/06/20 01:57:41;;;;;;;1.55;0.40;;;;;;;21.38;66.57;99763.33;1777388;79;21078;-56
2021/06/20 02:00:13;;;;;;;5.20;0.40;;;;;;;21.39;66.42;99762.32;1775700;79;22312;-56
2021/06/20 02:02:40;;;;;;;2.60;0.40;;;;;;;21.40;66.38;99767.66;1776815;79;21065;-55
2021/06/20 02:05:07;;;;;;;1.45;0.30;;;;;;;21.39;66.23;99766.42;1776689;79;21388;-56
2021/06/20 02:07:36;;;;;;;3.12;0.30;;;;;;;21.39;66.15;99759.58;1780828;79;20894;-56
2021/06/20 02:10:06;;;;;;;2.62;0.40;;;;;;;21.39;66.24;99753.61;1774163;79;21939;-55
2021/06/20 02:12:33;;;;;;;3.45;0.47;;;;;;;21.41;66.25;99746.62;1776319;79;21128;-56
2021/06/20 02:15:01;;;;;;;3.90;0.40;;;;;;;21.42;66.10;99746.98;1775080;79;21331;-56
2021/06/20 02:17:31;;;;;;;1.42;0.40;;;;;;;21.43;66.15;99733.66;1776773;79;22455;-55
2021/06/20 02:20:09;;;;;;;2.02;0.30;;;;;;;21.44;66.13;99742.21;1781506;79;20906;-55
2021/06/20 02:22:35;;;;;;;2.05;0.42;;;;;;;21.43;66.08;99739.14;1775990;79;21100;-55
2021/06/20 02:25:03;;;;;;;0.60;0.40;;;;;;;21.44;65.98;99743.58;1779163;79;21075;-56
2021/06/20 02:27:30;;;;;;;3.70;0.30;;;;;;;21.44;66.13;99750.42;1778232;79;20890;-55
2021/06/20 02:29:56;;;;;;;2.45;0.30;;;;;;;21.44;66.01;99745.81;1780267;79;20878;-55
2021/06/20 02:32:24;;;;;;;2.80;0.30;;;;;;;21.44;65.79;99744.95;1773945;79;20990;-54
2021/06/20 02:34:50;;;;;;;0.53;0.30;;;;;;;21.45;65.69;99746.18;1778791;79;21137;-55
2021/06/20 02:37:17;;;;;;;1.17;0.40;;;;;;;21.46;65.67;99742.94;1777319;79;21131;-56
2021/06/20 02:39:44;;;;;;;3.00;0.33;;;;;;;21.47;65.72;99744.67;1779352;79;21088;-55
2021/06/20 02:42:11;;;;;;;3.42;0.40;;;;;;;21.47;65.54;99744.17;1776959;79;21049;-55
2021/06/20 02:44:39;;;;;;;0.80;0.40;;;;;;;21.50;65.54;99740.29;1746304;80;21049;-55
2021/06/20 02:47:06;;;;;;;1.12;0.30;;;;;;;21.51;65.57;99748.37;1747385;80;21479;-56
2021/06/20 02:49:34;;;;;;;2.60;0.40;;;;;;;21.51;65.41;99737.91;1748352;80;21039;-55
2021/06/20 02:52:02;;;;;;;3.75;0.30;;;;;;;21.51;65.56;99743.39;1748282;80;21099;-55
2021/06/20 02:54:30;;;;;;;1.75;0.40;;;;;;;21.50;65.54;99737.05;1744139;80;21631;-56
2021/06/20 02:56:57;;;;;;;2.10;0.30;;;;;;;21.52;65.61;99732.80;1750803;80;20882;-56
2021/06/20 02:59:25;;;;;;;5.37;0.30;;;;;;;21.51;65.69;99732.44;1752468;80;21371;-57
2021/06/20 03:01:51;;;;;;;4.53;0.50;;;;;;;21.50;65.80;99733.45;1750922;80;21344;-55
2021/06/20 03:04:17;;;;;;;1.30;0.30;;;;;;;21.50;65.60;99731.57;1753238;80;20933;-54
2021/06/20 03:06:44;;;;;;;0.70;0.33;;;;;;;21.51;65.41;99733.81;1747481;80;20901;-56
2021/06/20 03:09:10;;;;;;;2.47;0.35;;;;;;;21.52;65.33;99735.55;1753423;80;20964;-55
2021/06/20 03:11:41;;;;;;;3.72;1.20;;;;;;;21.52;65.30;99740.48;1749943;80;21399;-55
2021/06/20 03:14:10;;;;;;;0.68;0.23;;;;;;;21.54;65.17;99743.09;1748468;80;20917;-56
2021/06/20 03:16:38;;;;;;;1.00;0.30;;;;;;;21.59;64.90;99753.12;1748812;80;21340;-55
2021/06/20 03:19:04;;;;;;;2.72;0.45;;;;;;;21.61;64.56;99759.30;1751467;80;20898;-57
2021/06/20 03:21:31;;;;;;;2.02;0.37;;;;;;;21.66;64.59;99763.86;1750424;80;20960;-55
2021/06/20 03:23:57;;;;;;;1.77;0.30;;;;;;;21.71;64.54;99766.16;1749251;80;21730;-56
2021/06/20 03:26:23;;;;;;;2.08;0.40;;;;;;;21.75;64.45;99759.39;1760262;80;20898;-55
2021/06/20 03:28:49;;;;;;;0.62;0.30;;;;;;;21.79;64.24;99759.44;1749876;80;21197;-57
2021/06/20 03:31:18;;;;;;;1.02;0.30;;;;;;;21.82;64.23;99771.50;1726090;81;22326;-56
2021/06/20 03:33:47;;;;;;;1.32;0.30;;;;;;;21.82;64.01;99775.10;1747025;80;21057;-56
2021/06/20 03:36:13;;;;;;;1.10;0.30;;;;;;;21.80;64.05;99779.85;1747680;80;22186;-55
2021/06/20 03:38:40;;;;;;;0.60;0.30;;;;;;;21.80;64.13;99774.88;1750520;80;21699;-56
2021/06/20 03:41:10;;;;;;;1.62;0.30;;;;;;;21.78;64.19;99785.97;1752356;80;21017;-57
2021/06/20 03:43:38;;;;;;;1.52;0.35;;;;;;;21.78;64.26;99782.37;1764595;79;21042;-55
2021/06/20 03:46:04;;;;;;;0.80;0.40;;;;;;;21.77;64.09;99778.80;1765754;79;21068;-56
2021/06/20 03:48:31;;;;;;;1.20;0.30;;;;;;;21.78;64.13;99759.95;1768293;79;21114;-57
2021/06/20 03:50:57;;;;;;;1.57;0.30;;;;;;;21.79;64.21;99749.34;1771554;79;20908;-56
2021/06/20 03:53:24;;;;;;;1.95;0.28;;;;;;;21.80;64.05;99758.44;1765615;79;21383;-55
2021/06/20 03:55:51;;;;;;;2.27;0.30;;;;;;;21.79;63.67;99750.72;1764549;79;21128;-55
2021/06/20 03:58:17;;;;;;;2.40;0.30;;;;;;;21.75;63.62;99740.22;1767295;79;21362;-57
2021/06/20 04:00:43;;;;;;;2.55;0.40;;;;;;;21.71;63.62;99736.88;1766179;79;22275;-56
2021/06/20 04:03:10;;;;;;;2.15;0.30;;;;;;;21.67;63.59;99735.46;1765849;79;21543;-55
2021/06/20 04:05:37;;;;;;;1.27;0.30;;;;;;;21.65;63.94;99729.25;1725831;81;21083;-55
2021/06/20 04:08:04;;;;;;;0.30;0.20;;;;;;;21.65;63.80;99726.52;1695135;82;21141;-56
2021/06/20 04:10:30;;;;;;;0.88;0.30;;;;;;;21.65;63.74;99718.80;1692176;82;22919;-55
2021/06/20 04:12:58;;;;;;;0.72;0.30;;;;;;;21.65;63.69;99721.03;1695945;82;21101;-55
2021/06/20 04:15:27;;;;;;;1.45;0.30;;;;;;;21.67;63.71;99723.14;1695038;84;21138;-54
2021/06/20 04:17:54;;;;;;;0.30;0.30;;;;;;;21.67;64.01;99714.91;1702737;82;21053;-55
2021/06/20 04:20:20;;;;;;;2.77;0.30;;;;;;;21.66;63.45;99715.06;1702026;82;21102;-55
2021/06/20 04:22:46;;;;;;;3.25;0.40;;;;;;;21.64;63.45;99719.80;1727190;80;21872;-55
2021/06/20 04:25:14;;;;;;;0.47;0.30;;;;;;;21.64;63.02;99720.67;1696144;82;21385;-55
2021/06/20 04:27:45;;;;;;;1.22;0.30;;;;;;;21.65;63.29;99726.52;1696174;82;21270;-56
2021/06/20 04:30:15;;;;;;;0.93;0.30;;;;;;;21.66;63.15;99711.81;1727561;81;21025;-55
2021/06/20 04:33:04;;;;;;;0.53;0.30;;;;;;;21.69;62.77;99711.50;1731889;81;22263;-56
2021/06/20 04:35:30;;;;;;;0.85;0.30;;;;;;;21.71;62.76;99701.27;1696913;82;21147;-55
2021/06/20 04:37:57;;;;;;;1.50;0.30;;;;;;;21.74;62.89;99691.41;1707049;81;21532;-55
2021/06/20 04:40:24;;;;;;;3.42;0.30;;;;;;;21.78;62.46;99696.06;1720108;80;21070;-55
2021/06/20 04:43:04;;;;;;;1.25;0.30;;;;;;;21.80;62.43;99700.90;1721701;80;21722;-56
2021/06/20 04:45:25;;;;;;;2.05;0.30;;;;;;;21.84;62.21;99704.59;1717491;81;21118;-56
2021/06/20 04:47:51;;;;;;;0.68;0.30;;;;;;;21.87;61.53;99704.27;1717905;81;21085;-55
2021/06/20 04:50:18;;;;;;;2.87;0.40;;;;;;;21.89;61.58;99706.37;1717662;81;21184;-55
2021/06/20 04:52:44;;;;;;;1.95;0.30;;;;;;;21.93;61.67;99704.72;1707509;81;21160;-55
2021/06/20 04:55:12;;;;;;;2.45;0.30;;;;;;;21.96;61.91;99698.41;1714141;81;21034;-55
2021/06/20 04:57:39;;;;;;;0.50;0.30;;;;;;;21.97;61.32;99697.44;1716668;81;21093;-55
2021/06/20 05:00:07;;;;;;;4.92;0.30;;;;;;;21.98;61.34;99709.27;1712175;81;21108;-56
2021/06/20 05:02:34;;;;;;;2.00;0.30;;;;;;;21.99;60.93;99705.52;1714188;81;21118;-56
2021/06/20 05:05:01;;;;;;;2.00;0.40;;;;;;;22.00;60.96;99703.14;1715887;81;21101;-55
2021/06/20 05:07:28;;;;;;;1.40;0.30;;;;;;;22.01;61.21;99695.28;1715011;81;21045;-56
2021/06/20 05:09:54;;;;;;;2.05;0.30;;;;;;;22.02;61.39;99681.94;1715031;81;21086;-56
2021/06/20 05:12:20;;;;;;;4.42;0.40;;;;;;;22.05;61.36;99682.99;1718381;81;21540;-56
2021/06/20 05:14:47;;;;;;;1.02;0.28;;;;;;;22.10;61.08;99687.05;1717897;81;21089;-55
2021/06/20 05:17:15;;;;;;;0.72;0.20;;;;;;;22.17;60.59;99694.16;1719010;81;21042;-56
2021/06/20 05:19:42;;;;;;;10.28;0.30;;;;;;;22.23;60.31;99688.06;1713181;81;21786;-55
2021/06/20 05:22:10;;;;;;;3.85;0.30;;;;;;;22.31;60.55;99690.92;1717131;81;22385;-56
2021/06/20 05:24:39;;;;;;;1.27;0.30;;;;;;;22.39;60.82;99685.55;1710378;81;21880;-55
2021/06/20 05:27:07;;;;;;;0.53;0.30;;;;;;;22.46;60.36;99693.52;1714180;81;22446;-56
2021/06/20 05:29:33;;;;;;;0.45;0.23;;;;;;;22.54;60.07;99689.52;1718854;81;21053;-56
2021/06/20 05:32:00;;;;;;;6.33;0.30;;;;;;;22.62;59.42;99695.14;1712875;81;21400;-56
2021/06/20 05:34:26;;;;;;;2.20;0.30;;;;;;;22.67;59.06;99689.18;1713196;81;21082;-56
2021/06/20 05:36:53;;;;;;;2.50;0.40;;;;;;;22.70;58.54;99690.26;1771188;78;20917;-56
2021/06/20 05:39:19;;;;;;;1.42;0.30;;;;;;;22.74;58.63;99690.80;1773636;78;21084;-54
2021/06/20 05:41:46;;;;;;;1.20;0.20;;;;;;;22.80;58.68;99691.58;1774536;78;21088;-54
2021/06/20 05:44:12;;;;;;;4.08;0.40;;;;;;;22.83;58.30;99694.03;1765670;78;21083;-56
2021/06/20 05:46:40;;;;;;;0.50;0.30;;;;;;;22.86;58.10;99688.25;1764852;78;21320;-55
2021/06/20 05:49:06;;;;;;;2.33;0.60;;;;;;;22.90;57.96;99689.65;1771919;78;20942;-55
2021/06/20 05:51:33;;;;;;;2.22;0.40;;;;;;;22.93;57.48;99689.36;1774156;78;21958;-55
2021/06/20 05:53:59;;;;;;;4.80;0.37;;;;;;;22.93;57.63;99689.36;1763402;78;20932;-54
2021/06/20 05:56:25;;;;;;;1.27;0.30;;;;;;;22.95;57.25;99695.56;1767245;78;20929;-53
2021/06/20 05:58:52;;;;;;;2.70;0.30;;;;;;;22.98;57.15;99696.61;1768688;78;20864;-55
2021/06/20 06:01:18;;;;;;;0.80;0.30;;;;;;;23.01;56.72;99701.80;1767326;78;21522;-56
2021/06/20 06:03:46;;;;;;;0.57;0.20;;;;;;;23.04;56.69;99697.38;1770891;78;21853;-54
2021/06/20 06:06:12;;;;;;;1.47;0.53;;;;;;;23.07;57.30;99701.17;1768965;78;21953;-54
2021/06/20 06:08:39;;;;;;;2.55;0.30;;;;;;;23.09;57.32;99692.78;1768241;78;20973;-54
2021/06/20 06:11:05;;;;;;;0.60;0.20;;;;;;;23.09;56.96;99696.91;1771288;78;20897;-53
2021/06/20 06:13:32;;;;;;;2.83;0.30;;;;;;;23.09;56.58;99699.14;1772733;78;21902;-54
2021/06/20 06:15:58;;;;;;;1.85;0.35;;;;;;;23.10;56.60;99699.50;1769439;78;21325;-55
2021/06/20 06:18:24;;;;;;;0.75;0.20;;;;;;;23.13;56.48;99703.32;1765895;78;20932;-53
2021/06/20 06:20:51;;;;;;;0.88;0.28;;;;;;;23.17;56.42;99701.11;1766919;78;20877;-55
2021/06/20 06:23:17;;;;;;;6.62;0.40;;;;;;;23.20;56.03;99706.30;1767997;78;21536;-54
2021/06/20 06:25:43;;;;;;;0.80;0.25;;;;;;;23.24;56.38;99709.94;1777275;78;20926;-56
2021/06/20 06:28:10;;;;;;;3.02;0.40;;;;;;;23.27;56.32;99708.27;1780641;78;21074;-55
2021/06/20 06:30:37;;;;;;;2.08;0.40;;;;;;;23.34;56.39;99708.50;1780645;79;21055;-53
2021/06/20 06:33:05;;;;;;;0.70;0.30;;;;;;;23.40;56.09;99706.48;1744704;79;21506;-54
2021/06/20 06:35:31;;;;;;;0.40;0.40;;;;;;;23.42;55.44;99710.46;1764404;80;21661;-55
2021/06/20 06:37:58;;;;;;;1.15;0.30;;;;;;;23.43;55.25;99713.06;1753000;80;21068;-55
2021/06/20 06:40:24;;;;;;;2.87;0.30;;;;;;;23.39;55.63;99707.00;1759550;80;21108;-54
2021/06/20 06:42:51;;;;;;;0.65;0.30;;;;;;;23.36;55.40;99710.59;1760757;80;21087;-54
2021/06/20 06:45:17;;;;;;;0.60;0.20;;;;;;;23.35;55.80;99708.34;1746741;80;21072;-53
2021/06/20 06:47:43;;;;;;;0.72;0.30;;;;;;;23.35;56.06;99702.86;1744998;80;21115;-55
2021/06/20 06:50:10;;;;;;;1.12;0.30;;;;;;;23.38;55.65;99709.42;1743160;80;21530;-54
2021/06/20 06:52:37;;;;;;;0.17;0.17;;;;;;;23.41;55.37;99706.84;1747911;80;21508;-54
2021/06/20 06:55:05;;;;;;;3.30;0.30;;;;;;;23.45;55.35;99701.41;1747395;79;21529;-55
2021/06/20 06:57:33;;;;;;;1.80;0.25;;;;;;;23.48;55.10;99688.71;1751136;79;21472;-55
2021/06/20 07:00:00;;;;;;;0.42;0.30;;;;;;;23.56;54.97;99690.73;1749771;80;20930;-55
2021/06/20 07:02:26;;;;;;;1.90;0.30;;;;;;;23.64;55.13;99687.55;1754888;79;21553;-54
2021/06/20 07:04:52;;;;;;;1.07;0.20;;;;;;;23.72;55.22;99685.38;1748761;80;21070;-54
2021/06/20 07:07:19;;;;;;;0.35;0.20;;;;;;;23.85;53.97;99686.32;1746197;80;22986;-55
2021/06/20 07:09:45;;;;;;;0.55;0.30;;;;;;;23.95;53.30;99690.70;1745440;80;21843;-54
2021/06/20 07:12:12;;;;;;;2.22;0.30;;;;;;;24.06;53.06;99679.96;1744733;80;21096;-55
2021/06/20 07:14:38;;;;;;;0.57;0.20;;;;;;;24.13;53.24;99668.15;1752322;80;20909;-56
2021/06/20 07:17:05;;;;;;;1.17;0.30;;;;;;;24.24;52.81;99670.31;1749314;80;21087;-54
2021/06/20 07:19:34;;;;;;;1.55;0.20;;;;;;;24.33;51.87;99675.67;1746234;79;21063;-54
2021/06/20 07:22:05;;;;;;;2.50;0.20;;;;;;;24.43;51.85;99670.05;1750744;80;21019;-54
2021/06/20 07:24:31;;;;;;;3.08;0.30;;;;;;;24.53;51.79;99672.17;1745446;80;21588;-55
2021/06/20 07:26:58;;;;;;;0.72;0.40;;;;;;;24.61;51.45;99663.09;1748306;79;21036;-53
2021/06/20 07:29:24;;;;;;;9.13;0.62;;;;;;;24.66;50.97;99664.84;1751012;80;21097;-53
2021/06/20 07:31:51;;;;;;;0.78;0.30;;;;;;;24.72;50.83;99667.79;1748016;79;21072;-55
2021/06/20 07:34:17;;;;;;;3.52;0.30;;;;;;;24.77;50.14;99675.53;1752641;78;21206;-53
2021/06/20 07:36:43;;;;;;;3.45;0.20;;;;;;;24.80;50.44;99671.08;1765135;78;21077;-53
2021/06/20 07:39:10;;;;;;;2.80;0.30;;;;;;;24.81;50.60;99671.44;1764953;78;21502;-53
2021/06/20 07:41:36;;;;;;;2.67;0.20;;;;;;;24.81;50.44;99676.42;1762384;78;21095;-53
2021/06/20 07:44:03;;;;;;;5.78;0.20;;;;;;;24.78;50.51;99675.88;1766729;78;21064;-54
2021/06/20 07:46:30;;;;;;;0.50;0.20;;;;;;;24.72;50.00;99666.41;1766871;78;21471;-54
2021/06/20 07:48:56;;;;;;;2.05;0.28;;;;;;;24.62;50.41;99668.94;1766125;78;21135;-55
2021/06/20 07:51:22;;;;;;;0.33;0.20;;;;;;;24.50;51.06;99663.72;1762604;78;21046;-53
2021/06/20 07:53:49;;;;;;;1.42;0.30;;;;;;;24.44;51.46;99669.03;1765721;78;21776;-54
2021/06/20 07:56:15;;;;;;;2.20;0.20;;;;;;;24.38;51.70;99655.94;1762701;78;21372;-55
2021/06/20 07:58:41;;;;;;;1.92;0.20;;;;;;;24.33;51.53;99649.53;1764238;78;21103;-55
2021/06/20 08:01:08;;;;;;;2.15;0.30;;;;;;;24.30;51.51;99651.77;1761277;78;21125;-54
2021/06/20 08:03:35;;;;;;;0.50;0.30;;;;;;;24.26;51.84;99641.59;1763737;78;21082;-55
2021/06/20 08:06:01;;;;;;;1.62;0.20;;;;;;;24.29;52.30;99641.80;1766345;78;21085;-54
2021/06/20 08:08:27;;;;;;;0.85;0.30;;;;;;;24.36;52.24;99637.35;1763583;78;21111;-56
2021/06/20 08:10:54;;;;;;;3.12;0.25;;;;;;;24.43;51.73;99632.40;1764081;78;21089;-53
2021/06/20 08:13:22;;;;;;;2.50;0.30;;;;;;;24.51;51.52;99639.82;1763067;78;21064;-55
2021/06/20 08:15:49;;;;;;;2.52;0.30;;;;;;;24.63;52.09;99638.51;1762655;78;21024;-56
2021/06/20 08:18:17;;;;;;;1.62;0.20;;;;;;;24.75;50.83;99623.39;1760426;78;21391;-55
2021/06/20 08:20:44;;;;;;;3.20;0.30;;;;;;;24.86;49.25;99620.85;1763090;78;21055;-56
2021/06/20 08:23:10;;;;;;;3.65;0.30;;;;;;;24.91;49.23;99618.51;1764229;78;21106;-56
2021/06/20 08:25:37;;;;;;;3.08;0.30;;;;;;;24.98;49.38;99613.18;1764433;78;21681;-56
2021/06/20 08:28:04;;;;;;;5.10;0.30;;;;;;;25.09;48.88;99601.85;1768713;78;21088;-56
2021/06/20 08:30:30;;;;;;;2.27;0.20;;;;;;;25.21;48.81;99604.08;1761610;78;21836;-56
2021/06/20 08:32:56;;;;;;;0.65;0.20;;;;;;;25.29;48.56;99605.12;1767633;78;21083;-54
2021/06/20 08:35:23;;;;;;;8.45;0.30;;;;;;;25.39;49.04;99595.66;1767282;78;21353;-57
2021/06/20 08:37:50;;;;;;;3.52;0.30;;;;;;;25.51;47.24;99594.80;1767288;79;21470;-54
2021/06/20 08:40:16;;;;;;;5.33;0.50;;;;;;;25.60;46.95;99578.64;1770153;78;20980;-56
2021/06/20 08:42:42;;;;;;;4.80;0.20;;;;;;;25.68;46.79;99581.91;1770799;78;21103;-55
2021/06/20 08:45:13;;;;;;;7.45;0.30;;;;;;;25.78;45.93;99583.92;1770349;79;21946;-54
2021/06/20 08:47:41;;;;;;;1.55;0.20;;;;;;;25.88;45.65;99581.33;1770275;78;20933;-54
2021/06/20 08:50:09;;;;;;;2.77;0.20;;;;;;;25.97;45.07;99583.55;1772330;79;21390;-56
2021/06/20 08:52:35;;;;;;;2.65;0.20;;;;;;;26.02;45.05;99581.14;1770195;79;21154;-55
2021/06/20 08:55:02;;;;;;;2.22;0.30;;;;;;;26.08;44.59;99580.94;1765740;79;21495;-56
2021/06/20 08:57:32;;;;;;;1.62;0.20;;;;;;;26.17;44.48;99581.26;1767459;78;21044;-55
2021/06/20 08:59:58;;;;;;;5.42;0.30;;;;;;;26.26;44.52;99580.23;1770444;78;20986;-54
2021/06/20 09:02:28;;;;;;;3.65;0.30;;;;;;;26.34;43.49;99581.57;1770755;79;20971;-55
2021/06/20 09:04:58;;;;;;;0.57;0.10;;;;;;;26.40;43.67;99578.61;1767916;79;20918;-55
2021/06/20 09:07:39;;;;;;;6.60;0.30;;;;;;;26.48;43.68;99588.22;1769604;79;21064;-55
2021/06/20 09:10:26;;;;;;;9.65;0.60;;;;;;;26.53;43.29;99572.87;1765624;78;20932;-55
2021/06/20 09:12:55;;;;;;;1.17;0.20;;;;;;;26.60;43.73;99572.48;1769130;79;20878;-56
2021/06/20 09:15:25;;;;;;;0.68;0.30;;;;;;;26.64;43.57;99570.20;1770999;79;21032;-55
2021/06/20 09:17:58;;;;;;;0.40;0.20;;;;;;;26.70;43.41;99573.13;1768337;78;20936;-54
2021/06/20 09:20:38;;;;;;;3.65;0.20;;;;;;;26.76;43.89;99578.42;1770821;78;21341;-54
2021/06/20 09:23:12;;;;;;;5.78;0.30;;;;;;;26.83;44.13;99580.80;1775325;78;20952;-55
2021/06/20 09:25:42;;;;;;;2.15;0.20;;;;;;;26.92;42.98;99583.02;1769767;79;20968;-55
2021/06/20 09:28:10;;;;;;;2.27;0.20;;;;;;;26.98;42.02;99565.70;1768069;78;21091;-56
2021/06/20 09:30:46;;;;;;;3.83;0.20;;;;;;;27.03;42.53;99568.80;1769941;79;20925;-56
2021/06/20 09:33:12;;;;;;;7.78;0.20;;;;;;;27.03;41.97;99564.66;1770112;79;21088;-55
2021/06/20 09:35:53;;;;;;;3.12;0.28;;;;;;;27.02;42.44;99558.27;1770828;79;20980;-55
2021/06/20 09:38:26;;;;;;;1.87;0.30;;;;;;;27.06;41.97;99558.73;1770604;79;20969;-55
2021/06/20 09:41:08;;;;;;;8.40;0.30;;;;;;;27.08;42.62;99560.80;1767043;78;20972;-54
2021/06/20 09:43:38;;;;;;;;;;;;;;;27.14;43.52;99565.58;1767912;79;21058;-55
2021/06/20 09:46:05;;;;;;;1.72;0.20;;;;;;;27.21;42.67;99567.11;1765108;78;21124;-56
2021/06/20 09:48:35;;;;;;;1.02;0.20;;;;;;;27.27;41.59;99558.93;1739220;79;21079;-54
2021/06/20 09:51:25;;;;;;;2.42;0.23;;;;;;;27.32;41.67;99567.51;1770552;79;20983;-55
2021/06/20 09:53:51;;;;;;;1.45;0.20;;;;;;;27.37;40.93;99563.69;1766550;78;21048;-57
2021/06/20 09:56:30;;;;;;;3.62;0.60;;;;;;;27.45;41.57;99565.52;1765025;79;21051;-55
2021/06/20 09:59:03;;;;;;;3.50;0.60;;;;;;;27.53;41.85;99559.91;1768013;79;21140;-56
2021/06/20 10:01:35;;;;;;;1.70;0.20;;;;;;;27.60;40.52;99554.00;1767156;79;21051;-54
2021/06/20 10:04:02;;;;;;;1.25;0.20;;;;;;;27.64;40.28;99558.64;1767135;79;21107;-55
2021/06/20 10:06:28;;;;;;;0.53;0.25;;;;;;;27.66;41.30;99559.28;1766353;78;21083;-57
2021/06/20 10:08:57;;;;;;;0.60;0.30;;;;;;;27.70;41.33;99552.34;1766382;79;21083;-57
2021/06/20 10:11:23;;;;;;;3.85;0.40;;;;;;;27.78;39.81;99564.70;1765306;78;22717;-55
2021/06/20 10:13:50;;;;;;;6.60;0.30;;;;;;;27.82;38.29;99553.06;1771721;78;21040;-56
2021/06/20 10:16:30;;;;;;;1.15;0.47;;;;;;;27.84;38.88;99558.41;1766444;78;21413;-57
2021/06/20 10:19:00;;;;;;;3.45;0.20;;;;;;;27.87;39.00;99541.45;1769073;79;22771;-58
2021/06/20 10:21:35;;;;;;;3.90;0.40;;;;;;;27.88;39.06;99548.70;1730015;80;21063;-56
2021/06/20 10:24:17;;;;;;;11.33;0.70;;;;;;;27.88;38.80;99547.84;1726831;81;21089;-57
2021/06/20 10:26:59;;;;;;;6.00;0.80;;;;;;;27.91;39.46;99546.92;1727018;81;21061;-56
2021/06/20 10:29:31;;;;;;;3.05;0.60;;;;;;;27.98;38.69;99548.42;1723740;81;21620;-56
2021/06/20 10:32:00;;;;;;;5.92;0.50;;;;;;;28.04;38.31;99537.97;1724005;81;21061;-56
2021/06/20 10:34:32;;;;;;;3.33;0.30;;;;;;;28.09;37.90;99541.01;1726163;80;21088;-57
2021/06/20 10:37:05;;;;;;;3.87;0.30;;;;;;;28.15;37.45;99534.73;1727021;81;22571;-56
2021/06/20 10:39:32;;;;;;;6.08;0.30;;;;;;;28.19;37.73;99529.16;1705719;82;21452;-56
2021/06/20 10:42:04;;;;;;;5.70;0.45;;;;;;;28.27;36.77;99522.66;1768353;78;21103;-56
2021/06/20 10:44:50;;;;;;;3.72;0.30;;;;;;;28.30;36.84;99527.83;1765915;78;21653;-55
2021/06/20 10:50:13;;;;;;;2.20;0.30;;;;;;;28.41;36.29;99532.88;1749823;78;22628;-56
2021/06/20 10:52:40;;;;;;;2.55;0.30;;;;;;;28.39;36.58;99523.90;1732416;81;20922;-55
2021/06/20 10:55:15;;;;;;;0.65;0.20;;;;;;;28.43;36.49;99534.38;1735083;81;21864;-54
2021/06/20 10:57:46;;;;;;;2.37;0.20;;;;;;;28.46;36.00;99532.62;1732986;81;20946;-56
2021/06/20 11:00:28;;;;;;;3.40;0.60;;;;;;;28.49;36.67;99523.94;1726157;80;20906;-56
2021/06/20 11:02:55;;;;;;;4.25;0.20;;;;;;;28.55;37.19;99520.37;1729998;81;20934;-54
2021/06/20 11:05:23;;;;;;;1.12;0.20;;;;;;;28.60;36.08;99530.85;1730541;81;20997;-56
2021/06/20 11:08:04;;;;;;;1.17;0.23;;;;;;;28.61;35.37;99518.20;1730618;80;21130;-56
2021/06/20 11:10:31;;;;;;;4.00;0.20;;;;;;;28.61;34.85;99505.74;1729339;81;20923;-54
2021/06/20 11:12:57;;;;;;;2.30;0.28;;;;;;;28.64;35.88;99511.42;1735032;81;20956;-55
2021/06/20 11:15:29;;;;;;;0.85;0.20;;;;;;;28.69;34.64;99517.22;1731261;81;20914;-54
2021/06/20 11:18:08;;;;;;;2.27;0.20;;;;;;;28.72;35.34;99504.91;1731149;81;20934;-54
2021/06/20 11:20:35;;;;;;;2.83;0.60;;;;;;;28.75;35.96;99508.13;1697586;82;21197;-54
2021/06/20 11:23:03;;;;;;;2.45;0.23;;;;;;;28.80;35.89;99504.81;1665599;83;21050;-56
2021/06/20 11:25:29;;;;;;;2.55;0.23;;;;;;;28.83;36.25;99497.50;1678445;83;21422;-52
2021/06/20 11:27:56;;;;;;;3.35;0.30;;;;;;;28.86;36.48;99509.03;1674924;83;21112;-55
2021/06/20 11:30:23;;;;;;;1.80;0.20;;;;;;;28.89;36.24;99511.41;1675198;83;21124;-55
2021/06/20 11:32:49;;;;;;;0.60;0.20;;;;;;;28.92;35.70;99511.56;1679024;83;22681;-56
2021/06/20 11:35:16;;;;;;;1.20;0.20;;;;;;;28.93;36.12;99525.19;1675970;83;21010;-57
2021/06/20 11:37:47;;;;;;;5.37;0.30;;;;;;;28.94;36.44;99517.20;1674508;83;21065;-56
2021/06/20 11:40:20;;;;;;;1.57;0.35;;;;;;;28.98;36.37;99524.61;1674701;83;21084;-56
2021/06/20 11:42:50;;;;;;;4.65;0.40;;;;;;;29.03;36.30;99524.86;1674793;83;21540;-56